Alma, West Virginia
Current Conditions -  °F | °C
As of 11:53 PM on Monday 20 Oct 2014 (Local Time) from KPKB Reporting Station
Clear Clear  
Wind Chill: 50°   Ceiling: Unl
Heat Index: 50°   Visibility: 10mi
Dew Point: 46°   Wind: 6mph
Humidity: 86%   Direction: 220°SW
Pressure: 29.92"   Gusts: NA
Location:  39.43°N, 80.84°W
Report Text: KPKB 210353Z AUTO 22005KT 10SM CLR 10/08 A2992 RMK AO2 LTG DSNT N SLP133 T01000078
Loading
Personal Weather Stations






























Interactive Weather Map
Tropical Storm Tracking
New forecast layout! Learn more

10-Day Weather Forecast

Advertisements
Track Severe Weather on mobile